• Join FlightAware (Why Join?)
  • Login
  • US Flag 
09:42AM EDT


 

Airport Tracker/Info


-or-


 

Live Flight TrackerFlight Track Log ✈ UAL5832 ✈ 09-Aug-2014 ✈ KORD - KBNA

Flight Track Log - Related Links

Times and Time Zones

All times are in EDT time to prevent confusion due to time zone crossing. See the UAL5832 flight status page for this flight to view local times or setup timezone preferences in your user account.

Time Position Orientation Groundspeed Altitude Reporting Facility
EDT Latitude Longitude Course Direction KTS MPH feet Rate Location/Type
07:28PM 41.9667 -87.8667 180° South 166 191 2,000  Level Chicago TRACON
07:29PM 41.9167 -87.8667 180° South 236 272 3,600 2,100 Climbing Chicago TRACON
07:31PM 41.6855 -87.8405 180° South  Level Estimated
07:31PM 41.8000 -87.8639 179° South 269 310 7,200  Level Chicago Center
07:32PM 41.5896 -87.8751 195° South  Level FlightAware Approximate
07:32PM 41.7217 -87.8669 182° South 278 320 9,800  Level Chicago Center
07:33PM 41.4918 -87.8519 176° South  Level Estimated
07:33PM 41.6406 -87.8692 181° South 291 335 11,900  Level Chicago Center
07:34PM 41.3940 -87.8288 180° South  Level Estimated
07:34PM 41.5506 -87.8714 181° South 303 349 14,000  Level Chicago Center
07:35PM 41.4592 -87.8747 182° South 330 380 15,000 1,020 Climbing Chicago Center
07:36PM 41.3511 -87.8828 183° South 361 415 16,200 1,200 Climbing Chicago Center
07:37PM 41.2464 -87.8919 184° South 375 432 17,500 1,200 Climbing Chicago Center
07:38PM 41.1481 -87.8903 179° South 375 432 18,700 1,080 Climbing Chicago Center
07:39PM 41.0419 -87.8861 178° South 376 433 19,800 1,020 Climbing Chicago Center
07:40PM 40.9336 -87.8825 179° South 386 444 20,800 960 Climbing Chicago Center
07:41PM 40.8217 -87.8797 179° South 397 457 21,800 1,020 Climbing Chicago Center
07:42PM 40.6875 -87.8744 178° South 402 463 23,000 1,020 Climbing Chicago Center
07:43PM 40.5739 -87.8714 179° South 406 467 24,000 960 Climbing Chicago Center
07:44PM 40.4589 -87.8669 178° South 410 472 25,000 960 Climbing Chicago Center
07:45PM 40.3433 -87.8614 178° South 412 474 26,000 960 Climbing Chicago Center
07:46PM 40.2281 -87.8353 170° South 418 481 27,000 1,020 Climbing Chicago Center
07:47PM 40.1069 -87.8122 172° South 419 482 28,100 960 Climbing Chicago Center
07:48PM 39.9931 -87.7878 171° South 418 481 29,000 420 Climbing Chicago Center
07:49PM 39.8758 -87.7625 171° South 426 490 29,000  Level Chicago Center
07:49PM 39.7994 -87.7472 171° South 436 502 29,000  Level Indianapolis Center
07:51PM 39.6728 -87.7206 171° South 456 525 29,000  Level Indianapolis Center
07:52PM 39.5422 -87.6950 171° South 471 542 29,000  Level Indianapolis Center
07:53PM 39.4111 -87.6672 171° South 474 545 29,000  Level Indianapolis Center
07:54PM 39.2856 -87.6422 171° South 474 545 29,000  Level Indianapolis Center
07:55PM 39.1511 -87.6139 171° South 474 545 29,000  Level Indianapolis Center
07:56PM 39.0250 -87.5881 171° South 474 545 29,000  Level Indianapolis Center
07:57PM 38.8694 -87.5567 171° South 474 545 29,000  Level Indianapolis Center
07:58PM 38.7394 -87.5306 171° South 474 545 29,000  Level Indianapolis Center
07:59PM 38.6103 -87.5047 171° South 473 544 29,000  Level Indianapolis Center
08:00PM 38.4822 -87.4789 171° South 473 544 29,000  Level Indianapolis Center
08:01PM 38.3664 -87.4011 152° Southeast 482 555 29,000  Level Indianapolis Center
08:02PM 38.2575 -87.3047 145° Southeast 482 555 29,000 -420 Level Indianapolis Center
08:03PM 38.1514 -87.2094 145° Southeast 481 554 28,200 -840 Descending Indianapolis Center
08:04PM 38.0469 -87.1150 145° Southeast 469 540 27,300 -960 Descending Indianapolis Center
08:05PM 37.9425 -87.0222 145° Southeast 465 535 26,300 -1,380 Descending Indianapolis Center
08:06PM 37.8153 -86.9097 145° Southeast 465 535 24,600 -1,500 Descending Indianapolis Center
08:07PM 37.7058 -86.8161 146° Southeast 470 541 23,300 -840 Descending Indianapolis Center
08:08PM 37.5972 -86.7256 147° Southeast 469 540 23,000 -180 Descending Indianapolis Center
08:09PM 37.4892 -86.6356 147° Southeast 470 541 23,000 -540 Level Indianapolis Center
08:10PM 37.3794 -86.5442 146° Southeast 470 541 22,000 -960 Descending Indianapolis Center
08:11PM 37.2719 -86.4539 146° Southeast 466 536 21,100 -960 Descending Indianapolis Center
08:12PM 37.1675 -86.3661 146° Southeast 452 520 20,100 -1,020 Descending Indianapolis Center
08:13PM 37.0672 -86.2822 146° Southeast 436 502 19,100 -1,440 Descending Indianapolis Center
08:14PM 36.9661 -86.2019 148° Southeast 427 491 17,200 -1,920 Descending Indianapolis Center
08:15PM 36.8586 -86.2181 187° South 405 466 15,200 -1,980 Descending Indianapolis Center
08:16PM 36.7644 -86.2717 205° Southwest 374 430 13,200 -1,800 Descending Indianapolis Center
08:17PM 36.6800 -86.3189 204° Southwest 340 391 11,600 -1,380 Descending Indianapolis Center
08:18PM 36.6203 -86.3883 223° Southwest 303 349 10,400 -1,200 Descending Indianapolis Center
08:19PM 36.5669 -86.4594 227° Southwest 284 327 9,200 -1,140 Descending Indianapolis Center
08:20PM 36.5131 -86.5206 222° Southwest 266 306 8,100 -1,080 Descending Indianapolis Center
08:21PM 36.4619 -86.5756 221° Southwest 248 285 7,100 -1,020 Descending Indianapolis Center
08:22PM 36.4172 -86.6339 226° Southwest 236 272 6,100 -600 Descending Indianapolis Center
08:23PM 36.3767 -86.6936 230° Southwest 229 264 6,000 -120 Descending Indianapolis Center
08:24PM 36.3331 -86.7528 228° Southwest 226 260 5,900  Descending Indianapolis Center
08:25PM 36.2833 -86.8000 217° Southwest 246 283 6,000  Climbing Nashville TRACON
08:26PM 36.2333 -86.8667 227° Southwest 220 253 6,000 -60 Level Nashville TRACON
08:27PM 36.1833 -86.9000 208° Southwest 220 253 5,900 -600 Descending Nashville TRACON
08:28PM 36.1167 -86.9000 180° South 230 265 4,900 -960 Descending Nashville TRACON
08:29PM 36.0500 -86.8667 158° South 224 258 4,000 -780 Descending Nashville TRACON
08:30PM 36.0000 -86.8333 152° Southeast 236 272 3,300 -600 Descending Nashville TRACON
08:31PM 35.9667 -86.7667 122° Southeast 220 253 2,900 -480 Descending Nashville TRACON
08:32PM 36.0000 -86.7167 51° Northeast 207 238 2,500 -600 Descending Nashville TRACON
08:33PM 36.0500 -86.7167 360° North 179 206 1,900 -840 Descending Nashville TRACON
08:34PM 36.0672 -86.7028 33° Northeast 180 207 1,300 -780 Descending Memphis Center
08:35PM 36.1108 -86.6850 18° North 159 183 700 -600 Descending Memphis Center